Terminal Aerodrome Forecast
Issued by NWS Sioux Falls, SD

Home | Current Version | Previous Version | Graphics & Text | Print | Product List | Glossary Off
Versions: 1 2 3 4 5 6 7 8 9 10 11 12 13 14 15 16 17

000
FTUS43 KFSD 160537
TAFHON
TAF
KHON 160537Z 1606/1706 15008KT P6SM OVC009
     FM160900 15004KT 5SM -SHRA BR OVC007
     FM161200 03008KT P6SM OVC010
     FM161900 34010KT P6SM OVC025
     FM162300 35012KT P6SM BKN035
     FM170300 34007KT P6SM SCT080=

USA.gov is the U.S. government's official web portal to all federal, state and local government web resources and services.